Pocatello, ID

10:28 PM MDT on September 20, 2014 (GMT -0600)
Soda Springs | Change Station
CLOSE
Current Station
Airport
Location: Soda Springs,
Elevation: 5840 ft
Nearby Weather Stations

Elev 5840 ft 42.65 °N, 111.58 °W | Updated 723 days ago

Clear
Clear
66 °F
Feels Like 66 °F
N
6
Wind Variable Wind from ENE
Gusts 10 mph

Today
High -- | Low -- °F
--% Chance of Precip.
Yesterday
High -- | Low -- °F
Precip. -- in
7:14 AM 7:30 PM
Waning Crescent, 9% visible
Pressure 30.19 in
Visibility 20.0 miles
Clouds Mostly Cloudy 8000 ft
Dew Point 45 °F
Humidity 46%
Rainfall 0.00 in
Snow Depth 0 in , 0 in , 0 in
UV 0 out of 12
Pollen 6.90 out of 12
PM2.5 Good
Flu Activity Not available.
METAR KU78 280055Z 00000KT 20SM BKN080 20/05 A3019 RMK LAST SODA SPRINGS OBSERVATION EVER SLPNO NOSPECI LAST

More Conditions Fewer Conditions

Pressure 30.19 in
Visibility 20.0 miles
Clouds Mostly Cloudy 8000 ft
Dew Point 45 °F
Humidity 46%
Rainfall 0.00 in
Snow Depth 0 in , 0 in , 0 in
UV 0 out of 12
Pollen 6.90 out of 12
PM2.5 Good
Flu Activity Not available.
METAR KU78 280055Z 00000KT 20SM BKN080 20/05 A3019 RMK LAST SODA SPRINGS OBSERVATION EVER SLPNO NOSPECI LAST

More Conditions Fewer Conditions

10-Day Weather Forecast

Almanac

Astronomy

Sep. 20, 2014 Rise Set
Actual Time 7:14 AM MDT 7:30 PM MDT
Civil Twilight 6:46 AM MDT 7:58 PM MDT
Nautical Twilight 6:13 AM MDT 8:31 PM MDT
Astronomical Twilight 5:39 AM MDT 9:05 PM MDT
Moon 3:53 AM MDT (9/20) 5:39 PM MDT (9/20)
Length of Visible Light 13h 12m
Length of Day
12h 15m
Tomorrow will be 2m 53s shorter.
Waning Crescent, 9% of the Moon is Illuminated
Sep 21
Waning Crescent
Sep 24
New
Oct 1
First Quarter
Oct 8
Full
Oct 15
Last Quarter

Today's Extremes

State Highs State Lows

Community

WunderPhotos

Upload Photos

1,755,081 photos uploaded!

Nearby

Air Quality

  Air Quality AQ Index Pollutant
Yesterday Good
PM10
Current Good
PM2.5
Saturday Good
PM2.5
Sunday Good
PM2.5
Monday Good
PM2.5

Snow Depth

Station Depth Elevation
Galena Summit 0 in 8780 ft
Crater Meadows 0 in 5960 ft
Trinity Mountain 0 in 7770 ft
Moscow Mountain 0 in 4700 ft
Emigrant Summit 0 in 7390 ft

Earthquake Activity

City Distance Mag. Time & Date
No recent earthquake activity has been reported nearby.
Minimum magnitude displayed is 2.5.

Coastal Water Temperatures

Place Temperature
No Stations Reporting

Nearby Weather Stations